sensor_id;sensor_type;location;lat;lon;timestamp;pressure;altitude;pressure_sealevel;temperature;humidity
10881;BME280;5493;48.884;8.338;2023-03-19T00:01:51;99871.53;;;13.41;100.00
10881;BME280;5493;48.884;8.338;2023-03-19T00:04:19;99868.81;;;13.41;100.00
10881;BME280;5493;48.884;8.338;2023-03-19T00:06:46;99871.06;;;13.65;100.00
10881;BME280;5493;48.884;8.338;2023-03-19T00:09:13;99875.34;;;13.61;100.00
10881;BME280;5493;48.884;8.338;2023-03-19T00:11:39;99870.06;;;13.71;100.00
10881;BME280;5493;48.884;8.338;2023-03-19T00:14:06;99874.97;;;13.53;100.00
10881;BME280;5493;48.884;8.338;2023-03-19T00:16:33;99879.44;;;13.64;100.00
10881;BME280;5493;48.884;8.338;2023-03-19T00:18:59;99882.91;;;13.59;100.00
10881;BME280;5493;48.884;8.338;2023-03-19T00:21:27;99881.50;;;13.57;100.00
10881;BME280;5493;48.884;8.338;2023-03-19T00:23:54;99887.28;;;13.44;100.00
10881;BME280;5493;48.884;8.338;2023-03-19T00:26:25;99892.91;;;13.42;100.00
10881;BME280;5493;48.884;8.338;2023-03-19T00:28:52;99901.88;;;13.43;100.00
10881;BME280;5493;48.884;8.338;2023-03-19T00:31:18;99903.09;;;13.35;100.00
10881;BME280;5493;48.884;8.338;2023-03-19T00:33:44;99907.88;;;13.28;100.00
10881;BME280;5493;48.884;8.338;2023-03-19T00:36:11;99919.25;;;13.13;100.00
10881;BME280;5493;48.884;8.338;2023-03-19T00:38:39;99918.56;;;13.06;100.00
10881;BME280;5493;48.884;8.338;2023-03-19T00:41:06;99931.19;;;12.84;100.00
10881;BME280;5493;48.884;8.338;2023-03-19T00:43:32;99925.63;;;12.91;100.00
10881;BME280;5493;48.884;8.338;2023-03-19T00:45:59;99928.09;;;13.09;100.00
10881;BME280;5493;48.884;8.338;2023-03-19T00:48:26;99932.31;;;13.16;100.00
10881;BME280;5493;48.884;8.338;2023-03-19T00:50:52;99929.28;;;13.29;100.00
10881;BME280;5493;48.884;8.338;2023-03-19T00:53:19;99929.44;;;13.40;100.00
10881;BME280;5493;48.884;8.338;2023-03-19T00:55:47;99931.00;;;13.36;100.00
10881;BME280;5493;48.884;8.338;2023-03-19T00:58:13;99939.97;;;13.53;100.00
10881;BME280;5493;48.884;8.338;2023-03-19T01:00:40;99936.09;;;13.65;100.00
10881;BME280;5493;48.884;8.338;2023-03-19T01:03:06;99937.22;;;13.69;100.00
10881;BME280;5493;48.884;8.338;2023-03-19T01:05:34;99943.78;;;13.57;100.00
10881;BME280;5493;48.884;8.338;2023-03-19T01:08:00;99939.91;;;13.86;100.00
10881;BME280;5493;48.884;8.338;2023-03-19T01:10:27;99941.72;;;13.80;100.00
10881;BME280;5493;48.884;8.338;2023-03-19T01:12:55;99934.25;;;13.88;100.00
10881;BME280;5493;48.884;8.338;2023-03-19T01:15:22;99940.94;;;14.02;100.00
10881;BME280;5493;48.884;8.338;2023-03-19T01:17:48;99939.28;;;14.01;100.00
10881;BME280;5493;48.884;8.338;2023-03-19T01:20:15;99940.94;;;14.02;100.00
10881;BME280;5493;48.884;8.338;2023-03-19T01:22:43;99937.31;;;14.13;100.00
10881;BME280;5493;48.884;8.338;2023-03-19T01:25:12;99939.81;;;14.19;100.00
10881;BME280;5493;48.884;8.338;2023-03-19T01:27:39;99952.13;;;14.27;100.00
10881;BME280;5493;48.884;8.338;2023-03-19T01:30:08;99953.25;;;14.31;100.00
10881;BME280;5493;48.884;8.338;2023-03-19T01:32:35;99952.56;;;14.36;100.00
10881;BME280;5493;48.884;8.338;2023-03-19T01:35:02;99951.88;;;14.28;100.00
10881;BME280;5493;48.884;8.338;2023-03-19T01:37:29;99951.31;;;14.26;100.00
10881;BME280;5493;48.884;8.338;2023-03-19T01:39:55;99947.53;;;14.27;100.00
10881;BME280;5493;48.884;8.338;2023-03-19T01:42:22;99947.56;;;14.32;100.00
10881;BME280;5493;48.884;8.338;2023-03-19T01:44:48;99948.66;;;14.32;100.00
10881;BME280;5493;48.884;8.338;2023-03-19T01:47:18;99953.41;;;14.41;100.00
10881;BME280;5493;48.884;8.338;2023-03-19T01:49:52;99954.13;;;14.53;100.00
10881;BME280;5493;48.884;8.338;2023-03-19T01:52:20;99950.91;;;14.56;100.00
10881;BME280;5493;48.884;8.338;2023-03-19T01:54:47;99942.09;;;14.71;100.00
10881;BME280;5493;48.884;8.338;2023-03-19T01:57:15;99946.19;;;14.73;100.00
10881;BME280;5493;48.884;8.338;2023-03-19T01:59:43;99938.94;;;14.79;100.00
10881;BME280;5493;48.884;8.338;2023-03-19T02:02:16;99942.50;;;14.85;100.00
10881;BME280;5493;48.884;8.338;2023-03-19T02:04:46;99938.97;;;14.84;100.00
10881;BME280;5493;48.884;8.338;2023-03-19T02:07:16;99936.97;;;15.01;100.00
10881;BME280;5493;48.884;8.338;2023-03-19T02:09:42;99942.09;;;14.98;100.00
10881;BME280;5493;48.884;8.338;2023-03-19T02:12:10;99937.97;;;14.90;100.00
10881;BME280;5493;48.884;8.338;2023-03-19T02:14:37;99941.16;;;14.82;100.00
10881;BME280;5493;48.884;8.338;2023-03-19T02:17:05;99949.84;;;14.84;100.00
10881;BME280;5493;48.884;8.338;2023-03-19T02:19:38;99942.28;;;14.86;100.00
10881;BME280;5493;48.884;8.338;2023-03-19T02:22:05;99946.16;;;14.95;100.00
10881;BME280;5493;48.884;8.338;2023-03-19T02:24:35;99952.81;;;14.83;100.00
10881;BME280;5493;48.884;8.338;2023-03-19T02:27:06;99951.72;;;14.84;100.00
10881;BME280;5493;48.884;8.338;2023-03-19T02:29:33;99942.47;;;14.58;100.00
10881;BME280;5493;48.884;8.338;2023-03-19T02:32:00;99943.81;;;14.55;100.00
10881;BME280;5493;48.884;8.338;2023-03-19T02:34:37;99937.78;;;14.48;100.00
10881;BME280;5493;48.884;8.338;2023-03-19T02:37:10;99939.13;;;14.29;100.00
10881;BME280;5493;48.884;8.338;2023-03-19T02:39:43;99937.75;;;14.26;100.00
10881;BME280;5493;48.884;8.338;2023-03-19T02:42:13;99942.06;;;14.44;100.00
10881;BME280;5493;48.884;8.338;2023-03-19T02:44:40;99942.16;;;14.32;100.00
10881;BME280;5493;48.884;8.338;2023-03-19T02:47:07;99941.81;;;14.46;100.00
10881;BME280;5493;48.884;8.338;2023-03-19T02:49:34;99948.31;;;14.45;100.00
10881;BME280;5493;48.884;8.338;2023-03-19T02:52:01;99942.47;;;14.58;100.00
10881;BME280;5493;48.884;8.338;2023-03-19T02:54:27;99942.13;;;14.49;100.00
10881;BME280;5493;48.884;8.338;2023-03-19T02:56:54;99949.84;;;14.57;100.00
10881;BME280;5493;48.884;8.338;2023-03-19T02:59:22;99938.09;;;14.52;100.00
10881;BME280;5493;48.884;8.338;2023-03-19T03:01:48;99947.38;;;14.34;100.00
10881;BME280;5493;48.884;8.338;2023-03-19T03:04:15;99947.53;;;14.27;100.00
10881;BME280;5493;48.884;8.338;2023-03-19T03:06:42;99950.94;;;14.18;100.00
10881;BME280;5493;48.884;8.338;2023-03-19T03:09:08;99952.84;;;14.01;100.00
10881;BME280;5493;48.884;8.338;2023-03-19T03:11:35;99953.75;;;14.06;100.00
10881;BME280;5493;48.884;8.338;2023-03-19T03:14:01;99953.88;;;14.16;100.00
10881;BME280;5493;48.884;8.338;2023-03-19T03:16:30;99947.44;;;14.01;100.00
10881;BME280;5493;48.884;8.338;2023-03-19T03:18:57;99952.19;;;14.10;100.00
10881;BME280;5493;48.884;8.338;2023-03-19T03:21:23;99953.75;;;14.06;100.00
10881;BME280;5493;48.884;8.338;2023-03-19T03:23:50;99960.97;;;14.01;100.00
10881;BME280;5493;48.884;8.338;2023-03-19T03:26:17;99958.66;;;14.09;100.00
10881;BME280;5493;48.884;8.338;2023-03-19T03:28:43;99968.84;;;13.80;100.00
10881;BME280;5493;48.884;8.338;2023-03-19T03:31:10;99968.41;;;13.89;100.00
10881;BME280;5493;48.884;8.338;2023-03-19T03:33:39;99968.69;;;13.70;100.00
10881;BME280;5493;48.884;8.338;2023-03-19T03:36:06;99962.88;;;13.45;100.00
10881;BME280;5493;48.884;8.338;2023-03-19T03:38:33;99972.03;;;13.61;100.00
10881;BME280;5493;48.884;8.338;2023-03-19T03:40:59;99967.06;;;13.53;100.00
10881;BME280;5493;48.884;8.338;2023-03-19T03:43:26;99968.69;;;13.37;100.00
10881;BME280;5493;48.884;8.338;2023-03-19T03:45:53;99967.84;;;13.37;100.00
10881;BME280;5493;48.884;8.338;2023-03-19T03:48:19;99975.47;;;13.23;100.00
10881;BME280;5493;48.884;8.338;2023-03-19T03:50:47;99982.72;;;13.34;100.00
10881;BME280;5493;48.884;8.338;2023-03-19T03:53:14;99979.34;;;13.27;100.00
10881;BME280;5493;48.884;8.338;2023-03-19T03:55:41;99980.31;;;13.21;100.00
10881;BME280;5493;48.884;8.338;2023-03-19T03:58:07;99977.19;;;13.12;100.00
10881;BME280;5493;48.884;8.338;2023-03-19T04:00:34;99984.00;;;13.15;100.00
10881;BME280;5493;48.884;8.338;2023-03-19T04:03:01;99981.22;;;12.98;100.00
10881;BME280;5493;48.884;8.338;2023-03-19T04:05:27;99992.19;;;12.92;100.00
10881;BME280;5493;48.884;8.338;2023-03-19T04:07:55;99986.09;;;12.84;100.00
10881;BME280;5493;48.884;8.338;2023-03-19T04:10:22;99986.25;;;12.78;100.00
10881;BME280;5493;48.884;8.338;2023-03-19T04:12:49;99985.00;;;12.69;100.00
10881;BME280;5493;48.884;8.338;2023-03-19T04:15:16;99990.56;;;12.51;100.00
10881;BME280;5493;48.884;8.338;2023-03-19T04:17:43;99994.50;;;12.71;100.00
10881;BME280;5493;48.884;8.338;2023-03-19T04:20:10;99990.25;;;12.75;100.00
10881;BME280;5493;48.884;8.338;2023-03-19T04:22:37;99992.94;;;12.87;100.00
10881;BME280;5493;48.884;8.338;2023-03-19T04:25:06;99993.44;;;12.72;100.00
10881;BME280;5493;48.884;8.338;2023-03-19T04:27:33;99994.00;;;12.74;100.00
10881;BME280;5493;48.884;8.338;2023-03-19T04:30:00;99992.13;;;12.75;100.00
10881;BME280;5493;48.884;8.338;2023-03-19T04:32:26;99994.47;;;12.83;100.00
10881;BME280;5493;48.884;8.338;2023-03-19T04:34:53;100002.06;;;12.69;100.00
10881;BME280;5493;48.884;8.338;2023-03-19T04:37:19;100002.16;;;12.63;100.00
10881;BME280;5493;48.884;8.338;2023-03-19T04:39:46;100006.69;;;12.86;100.00
10881;BME280;5493;48.884;8.338;2023-03-19T04:42:14;100006.03;;;12.95;100.00
10881;BME280;5493;48.884;8.338;2023-03-19T04:44:40;100000.09;;;12.81;100.00
10881;BME280;5493;48.884;8.338;2023-03-19T04:47:07;100004.94;;;12.79;100.00
10881;BME280;5493;48.884;8.338;2023-03-19T04:49:34;100008.38;;;12.75;100.00
10881;BME280;5493;48.884;8.338;2023-03-19T04:52:01;100004.28;;;12.72;100.00
10881;BME280;5493;48.884;8.338;2023-03-19T04:54:28;100015.22;;;12.66;100.00
10881;BME280;5493;48.884;8.338;2023-03-19T04:56:54;100015.13;;;12.61;100.00
10881;BME280;5493;48.884;8.338;2023-03-19T04:59:22;100017.69;;;12.56;100.00
10881;BME280;5493;48.884;8.338;2023-03-19T05:01:49;100019.59;;;12.55;100.00
10881;BME280;5493;48.884;8.338;2023-03-19T05:04:15;100018.31;;;12.46;100.00
10881;BME280;5493;48.884;8.338;2023-03-19T05:06:42;100020.75;;;12.59;100.00
10881;BME280;5493;48.884;8.338;2023-03-19T05:09:09;100020.00;;;12.36;100.00
10881;BME280;5493;48.884;8.338;2023-03-19T05:11:36;100018.59;;;12.33;100.00
10881;BME280;5493;48.884;8.338;2023-03-19T05:14:03;100017.66;;;12.27;100.00
10881;BME280;5493;48.884;8.338;2023-03-19T05:16:31;100021.53;;;12.31;100.00
10881;BME280;5493;48.884;8.338;2023-03-19T05:18:59;100022.69;;;12.47;100.00
10881;BME280;5493;48.884;8.338;2023-03-19T05:21:25;100022.41;;;12.60;100.00
10881;BME280;5493;48.884;8.338;2023-03-19T05:23:52;100027.34;;;12.52;100.00
10881;BME280;5493;48.884;8.338;2023-03-19T05:26:21;100016.44;;;12.47;100.00
10881;BME280;5493;48.884;8.338;2023-03-19T05:28:48;100017.28;;;12.47;100.00
10881;BME280;5493;48.884;8.338;2023-03-19T05:31:14;100018.94;;;12.37;100.00
10881;BME280;5493;48.884;8.338;2023-03-19T05:33:42;100017.97;;;12.43;100.00
10881;BME280;5493;48.884;8.338;2023-03-19T05:36:09;100018.38;;;12.74;100.00
10881;BME280;5493;48.884;8.338;2023-03-19T05:38:36;100017.41;;;12.80;100.00
10881;BME280;5493;48.884;8.338;2023-03-19T05:41:03;100020.25;;;12.74;100.00
10881;BME280;5493;48.884;8.338;2023-03-19T05:43:30;100015.28;;;12.82;100.00
10881;BME280;5493;48.884;8.338;2023-03-19T05:45:57;100014.34;;;12.77;100.00
10881;BME280;5493;48.884;8.338;2023-03-19T05:48:24;100019.34;;;12.57;100.00
10881;BME280;5493;48.884;8.338;2023-03-19T05:50:52;100020.97;;;12.69;100.00
10881;BME280;5493;48.884;8.338;2023-03-19T05:53:19;100021.72;;;12.53;100.00
10881;BME280;5493;48.884;8.338;2023-03-19T05:55:47;100026.22;;;12.48;100.00
10881;BME280;5493;48.884;8.338;2023-03-19T05:58:14;100024.13;;;12.66;100.00
10881;BME280;5493;48.884;8.338;2023-03-19T06:00:41;100035.06;;;12.71;100.00
10881;BME280;5493;48.884;8.338;2023-03-19T06:03:07;100034.75;;;12.56;100.00
10881;BME280;5493;48.884;8.338;2023-03-19T06:05:34;100039.28;;;12.79;100.00
10881;BME280;5493;48.884;8.338;2023-03-19T06:08:02;100028.31;;;12.86;100.00
10881;BME280;5493;48.884;8.338;2023-03-19T06:10:29;100043.47;;;12.58;100.00
10881;BME280;5493;48.884;8.338;2023-03-19T06:12:55;100034.25;;;12.71;100.00
10881;BME280;5493;48.884;8.338;2023-03-19T06:15:22;100038.78;;;12.94;100.00
10881;BME280;5493;48.884;8.338;2023-03-19T06:17:48;100042.56;;;12.81;100.00
10881;BME280;5493;48.884;8.338;2023-03-19T06:20:15;100037.03;;;12.88;100.00
10881;BME280;5493;48.884;8.338;2023-03-19T06:22:43;100037.72;;;12.95;100.00
10881;BME280;5493;48.884;8.338;2023-03-19T06:25:11;100040.31;;;12.90;100.00
10881;BME280;5493;48.884;8.338;2023-03-19T06:27:37;100042.00;;;12.79;100.00
10881;BME280;5493;48.884;8.338;2023-03-19T06:30:05;100029.81;;;12.65;100.00
10881;BME280;5493;48.884;8.338;2023-03-19T06:32:32;100041.06;;;12.73;100.00
10881;BME280;5493;48.884;8.338;2023-03-19T06:34:58;100040.31;;;12.90;100.00
10881;BME280;5493;48.884;8.338;2023-03-19T06:37:25;100038.78;;;12.94;100.00
10881;BME280;5493;48.884;8.338;2023-03-19T06:39:51;100043.66;;;13.08;100.00
10881;BME280;5493;48.884;8.338;2023-03-19T06:42:20;100047.94;;;12.93;100.00
10881;BME280;5493;48.884;8.338;2023-03-19T06:44:46;100043.81;;;13.02;100.00
10881;BME280;5493;48.884;8.338;2023-03-19T06:47:13;100046.59;;;13.07;100.00
10881;BME280;5493;48.884;8.338;2023-03-19T06:49:40;100046.22;;;13.26;100.00
10881;BME280;5493;48.884;8.338;2023-03-19T06:52:07;100048.09;;;13.26;100.00
10881;BME280;5493;48.884;8.338;2023-03-19T06:54:33;100053.13;;;13.51;100.00
10881;BME280;5493;48.884;8.338;2023-03-19T06:57:00;100050.59;;;13.61;100.00
10881;BME280;5493;48.884;8.338;2023-03-19T06:59:28;100056.00;;;13.61;100.00
10881;BME280;5493;48.884;8.338;2023-03-19T07:01:55;100058.16;;;13.59;100.00
10881;BME280;5493;48.884;8.338;2023-03-19T07:04:21;100064.72;;;13.18;100.00
10881;BME280;5493;48.884;8.338;2023-03-19T07:06:48;100072.84;;;13.06;100.00
10881;BME280;5493;48.884;8.338;2023-03-19T07:09:14;100069.50;;;13.27;100.00
10881;BME280;5493;48.884;8.338;2023-03-19T07:11:41;100074.84;;;13.39;100.00
10881;BME280;5493;48.884;8.338;2023-03-19T07:14:07;100077.38;;;13.29;100.00
10881;BME280;5493;48.884;8.338;2023-03-19T07:16:36;100069.44;;;12.99;100.00
10881;BME280;5493;48.884;8.338;2023-03-19T07:19:03;100077.03;;;13.25;100.00
10881;BME280;5493;48.884;8.338;2023-03-19T07:21:29;100081.09;;;13.11;100.00
10881;BME280;5493;48.884;8.338;2023-03-19T07:23:56;100080.44;;;13.32;100.00
10881;BME280;5493;48.884;8.338;2023-03-19T07:26:22;100079.19;;;13.23;100.00
10881;BME280;5493;48.884;8.338;2023-03-19T07:28:49;100076.41;;;13.35;100.00
10881;BME280;5493;48.884;8.338;2023-03-19T07:31:16;100078.53;;;13.33;100.00
10881;BME280;5493;48.884;8.338;2023-03-19T07:33:44;100083.59;;;13.58;100.00
10881;BME280;5493;48.884;8.338;2023-03-19T07:36:10;100077.41;;;13.46;100.00
10881;BME280;5493;48.884;8.338;2023-03-19T07:38:37;100089.94;;;13.80;100.00
10881;BME280;5493;48.884;8.338;2023-03-19T07:41:03;100077.28;;;13.69;100.00
10881;BME280;5493;48.884;8.338;2023-03-19T07:43:30;100084.59;;;13.68;100.00
10881;BME280;5493;48.884;8.338;2023-03-19T07:45:57;100081.38;;;13.71;100.00
10881;BME280;5493;48.884;8.338;2023-03-19T07:48:24;100076.16;;;13.82;100.00
10881;BME280;5493;48.884;8.338;2023-03-19T07:50:52;100078.28;;;14.13;100.00
10881;BME280;5493;48.884;8.338;2023-03-19T07:53:19;100080.66;;;14.43;100.00
10881;BME280;5493;48.884;8.338;2023-03-19T07:55:46;100085.81;;;14.61;100.00
10881;BME280;5493;48.884;8.338;2023-03-19T07:58:13;100069.84;;;14.64;100.00
10881;BME280;5493;48.884;8.338;2023-03-19T08:00:41;100085.00;;;15.04;100.00
10881;BME280;5493;48.884;8.338;2023-03-19T08:03:09;100079.34;;;15.32;100.00
10881;BME280;5493;48.884;8.338;2023-03-19T08:05:35;100085.31;;;15.34;100.00
10881;BME280;5493;48.884;8.338;2023-03-19T08:08:04;100079.63;;;15.57;100.00
10881;BME280;5493;48.884;8.338;2023-03-19T08:10:30;100079.31;;;15.54;100.00
10881;BME280;5493;48.884;8.338;2023-03-19T08:12:57;100080.69;;;15.56;100.00
10881;BME280;5493;48.884;8.338;2023-03-19T08:15:23;100078.31;;;15.38;100.00
10881;BME280;5493;48.884;8.338;2023-03-19T08:17:56;100080.31;;;15.74;100.00
10881;BME280;5493;48.884;8.338;2023-03-19T08:20:23;100084.09;;;15.68;100.00
10881;BME280;5493;48.884;8.338;2023-03-19T08:22:49;100081.41;;;15.47;100.00
10881;BME280;5493;48.884;8.338;2023-03-19T08:25:17;100084.66;;;16.02;100.00
10881;BME280;5493;48.884;8.338;2023-03-19T08:27:44;100077.81;;;16.00;100.00
10881;BME280;5493;48.884;8.338;2023-03-19T08:30:11;100084.94;;;15.74;100.00
10881;BME280;5493;48.884;8.338;2023-03-19T08:32:38;100076.97;;;15.94;100.00
10881;BME280;5493;48.884;8.338;2023-03-19T08:35:05;100085.16;;;15.99;100.00
10881;BME280;5493;48.884;8.338;2023-03-19T08:37:32;100088.59;;;16.21;100.00
10881;BME280;5493;48.884;8.338;2023-03-19T08:39:59;100089.53;;;16.37;100.00
10881;BME280;5493;48.884;8.338;2023-03-19T08:42:26;100086.75;;;16.32;100.00
10881;BME280;5493;48.884;8.338;2023-03-19T08:44:54;100089.00;;;16.40;100.00
10881;BME280;5493;48.884;8.338;2023-03-19T08:47:21;100086.06;;;16.52;100.00
10881;BME280;5493;48.884;8.338;2023-03-19T08:49:48;100081.59;;;16.72;100.00
10881;BME280;5493;48.884;8.338;2023-03-19T08:52:15;100090.81;;;17.29;100.00
10881;BME280;5493;48.884;8.338;2023-03-19T08:54:41;100087.03;;;17.50;100.00
10881;BME280;5493;48.884;8.338;2023-03-19T08:57:08;100085.13;;;17.50;100.00
10881;BME280;5493;48.884;8.338;2023-03-19T08:59:36;100081.59;;;17.55;100.00
10881;BME280;5493;48.884;8.338;2023-03-19T09:02:03;100087.66;;;17.77;100.00
10881;BME280;5493;48.884;8.338;2023-03-19T09:04:30;100087.13;;;17.90;100.00
10881;BME280;5493;48.884;8.338;2023-03-19T09:07:00;100088.72;;;17.61;100.00
10881;BME280;5493;48.884;8.338;2023-03-19T09:09:29;100085.72;;;17.73;100.00
10881;BME280;5493;48.884;8.338;2023-03-19T09:11:56;100085.72;;;17.73;100.00
10881;BME280;5493;48.884;8.338;2023-03-19T09:14:23;100088.72;;;17.66;98.20
10881;BME280;5493;48.884;8.338;2023-03-19T09:16:51;100084.09;;;17.61;97.75
10881;BME280;5493;48.884;8.338;2023-03-19T09:19:17;100081.84;;;17.48;96.40
10881;BME280;5493;48.884;8.338;2023-03-19T09:21:44;100087.38;;;17.63;96.21
10881;BME280;5493;48.884;8.338;2023-03-19T09:24:11;100088.38;;;17.37;98.77
10881;BME280;5493;48.884;8.338;2023-03-19T09:26:37;100091.34;;;17.31;97.77
10881;BME280;5493;48.884;8.338;2023-03-19T09:29:04;100098.72;;;17.40;98.28
10881;BME280;5493;48.884;8.338;2023-03-19T09:31:30;100096.53;;;17.27;95.43
10881;BME280;5493;48.884;8.338;2023-03-19T09:33:58;100095.19;;;17.35;94.18
10881;BME280;5493;48.884;8.338;2023-03-19T09:36:24;100094.09;;;17.36;94.21
10881;BME280;5493;48.884;8.338;2023-03-19T09:38:51;100091.19;;;17.57;94.46
10881;BME280;5493;48.884;8.338;2023-03-19T09:41:26;100091.47;;;17.81;95.49
10881;BME280;5493;48.884;8.338;2023-03-19T09:43:59;100087.88;;;17.50;93.56
10881;BME280;5493;48.884;8.338;2023-03-19T09:46:32;100093.63;;;17.69;95.65
10881;BME280;5493;48.884;8.338;2023-03-19T09:49:08;100095.81;;;18.28;96.39
10881;BME280;5493;48.884;8.338;2023-03-19T09:51:42;100087.66;;;17.87;92.27
10881;BME280;5493;48.884;8.338;2023-03-19T09:54:24;100095.84;;;18.02;89.37
10881;BME280;5493;48.884;8.338;2023-03-19T09:56:51;100094.75;;;18.03;91.77
10881;BME280;5493;48.884;8.338;2023-03-19T09:59:19;100086.81;;;18.27;88.53
10881;BME280;5493;48.884;8.338;2023-03-19T10:01:52;100088.44;;;18.43;84.70
10881;BME280;5493;48.884;8.338;2023-03-19T10:04:38;100085.75;;;18.08;82.96
10881;BME280;5493;48.884;8.338;2023-03-19T10:07:13;100083.81;;;18.24;83.41
10881;BME280;5493;48.884;8.338;2023-03-19T10:09:48;100080.84;;;18.05;81.96
10881;BME280;5493;48.884;8.338;2023-03-19T10:12:29;100087.88;;;18.46;79.55
10881;BME280;5493;48.884;8.338;2023-03-19T10:15:06;100083.53;;;18.40;77.95
10881;BME280;5493;48.884;8.338;2023-03-19T10:17:38;100081.94;;;17.89;81.25
10881;BME280;5493;48.884;8.338;2023-03-19T10:20:11;100097.50;;;17.83;84.76
10881;BME280;5493;48.884;8.338;2023-03-19T10:22:43;100091.19;;;17.67;83.50
10881;BME280;5493;48.884;8.338;2023-03-19T10:25:17;100099.13;;;17.79;84.98
10881;BME280;5493;48.884;8.338;2023-03-19T10:27:46;100096.41;;;18.04;86.82
10881;BME280;5493;48.884;8.338;2023-03-19T10:30:19;100099.94;;;18.15;84.55
10881;BME280;5493;48.884;8.338;2023-03-19T10:32:51;100096.66;;;18.03;83.41
10881;BME280;5493;48.884;8.338;2023-03-19T10:35:22;100094.47;;;18.10;83.44
10881;BME280;5493;48.884;8.338;2023-03-19T10:37:49;100098.84;;;18.26;86.64
10881;BME280;5493;48.884;8.338;2023-03-19T10:40:20;100090.09;;;18.29;86.88
10881;BME280;5493;48.884;8.338;2023-03-19T10:43:00;100100.22;;;18.08;90.21
10881;BME280;5493;48.884;8.338;2023-03-19T10:45:30;100090.38;;;18.17;93.28
10881;BME280;5493;48.884;8.338;2023-03-19T10:48:00;100098.56;;;17.87;88.95
10881;BME280;5493;48.884;8.338;2023-03-19T10:50:31;100096.09;;;17.91;91.12
10881;BME280;5493;48.884;8.338;2023-03-19T10:53:03;100089.28;;;18.29;91.41
10881;BME280;5493;48.884;8.338;2023-03-19T10:55:31;100093.38;;;18.31;90.99
10881;BME280;5493;48.884;8.338;2023-03-19T10:58:02;100096.91;;;18.32;89.01
10881;BME280;5493;48.884;8.338;2023-03-19T11:00:30;100102.91;;;18.44;93.73
10881;BME280;5493;48.884;8.338;2023-03-19T11:03:00;100100.75;;;18.10;93.16
10881;BME280;5493;48.884;8.338;2023-03-19T11:05:31;100091.19;;;17.98;94.44
10881;BME280;5493;48.884;8.338;2023-03-19T11:08:00;100108.94;;;17.95;94.55
10881;BME280;5493;48.884;8.338;2023-03-19T11:10:28;100101.81;;;17.74;95.44
10881;BME280;5493;48.884;8.338;2023-03-19T11:12:56;100105.09;;;17.91;94.54
10881;BME280;5493;48.884;8.338;2023-03-19T11:15:27;100106.47;;;17.89;95.78
10881;BME280;5493;48.884;8.338;2023-03-19T11:17:58;100107.31;;;17.79;96.75
10881;BME280;5493;48.884;8.338;2023-03-19T11:20:28;100102.63;;;18.35;96.76
10881;BME280;5493;48.884;8.338;2023-03-19T11:22:56;100098.56;;;18.28;96.00
10881;BME280;5493;48.884;8.338;2023-03-19T11:25:28;100094.97;;;18.73;95.73
10881;BME280;5493;48.884;8.338;2023-03-19T11:27:59;100095.81;;;18.58;94.86
10881;BME280;5493;48.884;8.338;2023-03-19T11:30:32;100097.91;;;18.81;95.92
10881;BME280;5493;48.884;8.338;2023-03-19T11:33:18;100093.38;;;18.16;97.56
10881;BME280;5493;48.884;8.338;2023-03-19T11:35:55;100087.88;;;18.46;95.79
10881;BME280;5493;48.884;8.338;2023-03-19T11:38:36;100102.94;;;18.59;97.35
10881;BME280;5493;48.884;8.338;2023-03-19T11:41:11;100093.34;;;18.46;99.07
10881;BME280;5493;48.884;8.338;2023-03-19T11:43:49;100096.63;;;18.38;98.60
10881;BME280;5493;48.884;8.338;2023-03-19T11:46:26;100094.78;;;18.08;100.00
10881;BME280;5493;48.884;8.338;2023-03-19T11:49:10;100096.13;;;18.06;100.00
10881;BME280;5493;48.884;8.338;2023-03-19T11:51:46;100094.19;;;18.32;100.00
10881;BME280;5493;48.884;8.338;2023-03-19T11:54:21;100091.16;;;18.38;100.00
10881;BME280;5493;48.884;8.338;2023-03-19T11:56:54;100098.81;;;18.31;100.00
10881;BME280;5493;48.884;8.338;2023-03-19T11:59:35;100084.66;;;18.14;100.00
10881;BME280;5493;48.884;8.338;2023-03-19T12:05:20;100095.25;;;18.46;100.00
10881;BME280;5493;48.884;8.338;2023-03-19T12:07:58;100088.19;;;18.55;100.00
10881;BME280;5493;48.884;8.338;2023-03-19T12:10:41;100090.88;;;18.50;100.00
10881;BME280;5493;48.884;8.338;2023-03-19T12:13:18;100088.44;;;18.43;100.00
10881;BME280;5493;48.884;8.338;2023-03-19T12:15:55;100096.69;;;18.08;100.00
10881;BME280;5493;48.884;8.338;2023-03-19T12:18:43;100084.09;;;18.17;100.00
10881;BME280;5493;48.884;8.338;2023-03-19T12:21:17;100090.38;;;17.87;100.00
10881;BME280;5493;48.884;8.338;2023-03-19T12:23:58;100088.47;;;17.57;100.00
10881;BME280;5493;48.884;8.338;2023-03-19T12:26:38;100092.00;;;17.68;100.00
10881;BME280;5493;48.884;8.338;2023-03-19T12:29:15;100083.81;;;17.63;100.00
10881;BME280;5493;48.884;8.338;2023-03-19T12:31:57;100092.53;;;17.60;100.00
10881;BME280;5493;48.884;8.338;2023-03-19T12:34:33;100086.00;;;17.76;100.00
10881;BME280;5493;48.884;8.338;2023-03-19T12:37:08;100090.91;;;17.59;100.00
10881;BME280;5493;48.884;8.338;2023-03-19T12:39:41;100091.47;;;17.81;100.00
10881;BME280;5493;48.884;8.338;2023-03-19T12:42:15;100087.13;;;17.90;100.00
10881;BME280;5493;48.884;8.338;2023-03-19T12:44:47;100096.94;;;17.81;100.00
10881;BME280;5493;48.884;8.338;2023-03-19T12:47:19;100092.50;;;17.50;100.00
10881;BME280;5493;48.884;8.338;2023-03-19T12:49:50;100100.06;;;17.28;100.00
10881;BME280;5493;48.884;8.338;2023-03-19T12:52:21;100091.59;;;17.19;100.00
10881;BME280;5493;48.884;8.338;2023-03-19T12:54:54;100096.47;;;17.12;100.00
10881;BME280;5493;48.884;8.338;2023-03-19T12:57:31;100102.25;;;16.63;100.00
10881;BME280;5493;48.884;8.338;2023-03-19T13:00:02;100093.91;;;16.90;100.00
10881;BME280;5493;48.884;8.338;2023-03-19T13:02:34;100094.50;;;16.97;100.00
10881;BME280;5493;48.884;8.338;2023-03-19T13:05:06;100105.84;;;16.79;100.00
10881;BME280;5493;48.884;8.338;2023-03-19T13:07:49;100102.69;;;17.02;100.00